createdAt,value
2019-03-05T00:05:12.010Z,6.80
2019-03-05T00:11:16.863Z,6.80
2019-03-05T00:17:21.454Z,6.80
2019-03-05T00:23:49.025Z,6.70
2019-03-05T00:30:18.320Z,6.70
2019-03-05T00:36:33.402Z,6.40
2019-03-05T00:43:09.905Z,6.10
2019-03-05T00:49:24.998Z,5.80
2019-03-05T00:55:50.151Z,5.70
2019-03-05T01:02:21.462Z,5.70
2019-03-05T01:08:26.846Z,5.80
2019-03-05T01:14:32.359Z,5.90
2019-03-05T01:20:37.047Z,6.00
2019-03-05T01:26:41.681Z,6.00
2019-03-05T01:32:48.468Z,6.00
2019-03-05T01:38:54.648Z,6.00
2019-03-05T01:44:59.241Z,6.10
2019-03-05T01:51:04.084Z,6.10
2019-03-05T01:57:08.695Z,6.10
2019-03-05T02:03:13.452Z,6.10
2019-03-05T02:09:18.552Z,6.20
2019-03-05T02:15:23.162Z,6.20
2019-03-05T02:21:27.731Z,6.20
2019-03-05T02:28:02.068Z,6.30
2019-03-05T02:34:26.154Z,6.30
2019-03-05T02:40:40.974Z,6.30
2019-03-05T02:47:34.386Z,6.40
2019-03-05T02:54:21.326Z,6.40
2019-03-05T03:00:33.607Z,6.50
2019-03-05T03:06:38.882Z,6.50
2019-03-05T03:12:45.664Z,6.50
2019-03-05T03:18:50.504Z,6.60
2019-03-05T03:24:55.142Z,6.60
2019-03-05T03:30:59.688Z,6.60
2019-03-05T03:37:04.476Z,6.50
2019-03-05T03:43:09.093Z,6.50
2019-03-05T03:49:13.874Z,6.50
2019-03-05T03:55:18.724Z,6.50
2019-03-05T04:01:23.277Z,6.50
2019-03-05T04:07:28.012Z,6.50
2019-03-05T04:13:32.643Z,6.50
2019-03-05T04:19:37.309Z,6.50
2019-03-05T04:25:41.839Z,6.50
2019-03-05T04:31:47.624Z,6.40
2019-03-05T04:37:52.157Z,6.30
2019-03-05T04:43:56.718Z,6.30
2019-03-05T04:50:02.904Z,6.10
2019-03-05T04:56:07.645Z,6.10
2019-03-05T05:02:12.640Z,6.00
2019-03-05T05:08:17.572Z,6.00
2019-03-05T05:14:23.128Z,5.90
2019-03-05T05:20:27.955Z,5.80
2019-03-05T05:26:32.717Z,5.60
2019-03-05T05:32:37.372Z,5.00
2019-03-05T05:38:42.043Z,4.50
2019-03-05T05:44:46.732Z,4.10
2019-03-05T05:50:51.433Z,4.00
2019-03-05T05:56:56.175Z,4.00
2019-03-05T06:03:00.954Z,4.10
2019-03-05T06:09:07.041Z,4.20
2019-03-05T06:15:15.816Z,4.10
2019-03-05T06:21:20.623Z,4.20
2019-03-05T06:27:25.322Z,4.30
2019-03-05T06:33:30.058Z,4.40
2019-03-05T06:39:34.615Z,4.50
2019-03-05T06:45:39.553Z,4.60
2019-03-05T06:51:44.316Z,4.80
2019-03-05T06:57:49.201Z,4.80
2019-03-05T07:03:53.817Z,5.00
2019-03-05T07:10:11.940Z,5.00
2019-03-05T07:16:30.145Z,5.20
2019-03-05T07:22:57.261Z,5.30
2019-03-05T07:29:02.126Z,5.50
2019-03-05T07:35:11.531Z,5.60
2019-03-05T07:41:16.473Z,5.70
2019-03-05T07:47:21.022Z,5.80
2019-03-05T07:53:25.579Z,5.90
2019-03-05T07:59:51.156Z,5.90
2019-03-05T08:05:55.728Z,5.90
2019-03-05T08:12:10.488Z,5.90
2019-03-05T08:18:15.233Z,6.00
2019-03-05T08:24:19.858Z,6.20
2019-03-05T08:30:24.468Z,6.30
2019-03-05T08:36:29.076Z,6.30
2019-03-05T08:42:33.626Z,6.40
2019-03-05T08:48:38.182Z,6.30
2019-03-05T08:54:45.301Z,6.30
2019-03-05T09:00:49.081Z,6.40
2019-03-05T09:06:53.707Z,6.30
2019-03-05T09:12:58.337Z,6.40
2019-03-05T09:19:02.970Z,6.40
2019-03-05T09:25:12.135Z,6.50
2019-03-05T09:31:17.105Z,6.50
2019-03-05T09:37:21.892Z,6.60
2019-03-05T09:43:26.443Z,6.60
2019-03-05T09:49:31.136Z,6.50
2019-03-05T09:55:36.629Z,6.50
2019-03-05T10:01:41.411Z,6.70
2019-03-05T10:07:46.975Z,6.80
2019-03-05T10:13:51.614Z,6.90
2019-03-05T10:19:56.184Z,6.60
2019-03-05T10:26:00.815Z,6.50
2019-03-05T10:32:05.803Z,6.60
2019-03-05T10:38:11.936Z,6.60
2019-03-05T10:44:17.450Z,6.70
2019-03-05T10:50:26.812Z,6.80
2019-03-05T10:56:31.555Z,6.90
2019-03-05T11:02:36.388Z,6.90
2019-03-05T11:08:41.542Z,7.00
2019-03-05T11:14:46.269Z,6.90
2019-03-05T11:20:51.050Z,6.90
2019-03-05T11:26:56.214Z,6.80
2019-03-05T11:33:00.921Z,6.80
2019-03-05T11:39:07.341Z,6.90
2019-03-05T11:45:21.956Z,6.90
2019-03-05T11:51:26.729Z,6.80
2019-03-05T11:57:31.839Z,6.80
2019-03-05T12:03:36.956Z,6.90
2019-03-05T12:09:41.645Z,6.80
2019-03-05T12:15:46.943Z,6.80
2019-03-05T12:21:51.490Z,7.00
2019-03-05T12:27:56.327Z,7.10
2019-03-05T12:34:00.886Z,7.20
2019-03-05T12:40:08.360Z,7.50
2019-03-05T12:46:12.938Z,7.40
2019-03-05T12:52:17.826Z,7.50
2019-03-05T12:58:22.988Z,7.90
2019-03-05T13:04:27.538Z,8.60
2019-03-05T13:10:35.927Z,8.50
2019-03-05T13:16:41.078Z,8.00
2019-03-05T13:22:46.374Z,7.80
2019-03-05T13:28:51.164Z,7.90
2019-03-05T13:34:55.875Z,8.10
2019-03-05T13:41:00.659Z,8.10
2019-03-05T13:47:05.941Z,7.90
2019-03-05T13:54:00.496Z,7.90
2019-03-05T13:59:58.168Z,7.90
2019-03-05T14:06:22.627Z,7.90
2019-03-05T14:12:27.430Z,7.70
2019-03-05T14:18:31.990Z,7.60
2019-03-05T14:24:36.710Z,7.50
2019-03-05T14:30:42.219Z,7.50
2019-03-05T14:36:47.991Z,7.50
2019-03-05T14:42:52.836Z,7.60
2019-03-05T14:48:57.717Z,8.00
2019-03-05T14:55:02.499Z,8.70
2019-03-05T15:01:08.973Z,8.80
2019-03-05T15:07:14.190Z,8.60
2019-03-05T15:13:20.169Z,8.40
2019-03-05T15:19:25.234Z,8.50
2019-03-05T15:25:29.850Z,8.40
2019-03-05T15:31:34.387Z,8.80
2019-03-05T15:37:39.130Z,8.90
2019-03-05T15:43:43.836Z,8.70
2019-03-05T15:49:49.634Z,8.50
2019-03-05T15:55:56.038Z,8.40
2019-03-05T16:02:00.505Z,8.60
2019-03-05T16:08:05.053Z,9.50
2019-03-05T16:14:09.601Z,8.80
2019-03-05T16:20:19.655Z,9.50
2019-03-05T16:26:24.869Z,10.50
2019-03-05T16:32:33.833Z,11.50
2019-03-05T16:38:56.151Z,11.40
2019-03-05T16:45:08.317Z,10.10
2019-03-05T16:51:17.469Z,9.00
2019-03-05T16:57:39.019Z,8.30
2019-03-05T17:03:45.494Z,7.90
2019-03-05T17:10:00.897Z,7.60
2019-03-05T17:16:05.521Z,7.30
2019-03-05T17:22:10.076Z,7.00
2019-03-05T17:28:15.819Z,6.80
2019-03-05T17:34:20.768Z,6.70
2019-03-05T17:40:25.362Z,6.60
2019-03-05T17:46:29.920Z,6.80
2019-03-05T17:52:34.847Z,6.70
2019-03-05T17:58:39.402Z,6.60
2019-03-05T18:04:44.371Z,6.40
2019-03-05T18:10:49.017Z,6.10
2019-03-05T18:16:53.664Z,5.90
2019-03-05T18:22:58.616Z,5.70
2019-03-05T18:29:03.175Z,5.40
2019-03-05T18:35:10.250Z,5.40
2019-03-05T18:41:15.105Z,5.30
2019-03-05T18:47:19.857Z,5.10
2019-03-05T18:53:24.677Z,5.00
2019-03-05T18:59:29.305Z,5.00
2019-03-05T19:05:33.968Z,4.80
2019-03-05T19:11:38.511Z,4.80
2019-03-05T19:17:44.318Z,4.80
2019-03-05T19:23:49.228Z,4.70
2019-03-05T19:29:53.787Z,4.60
2019-03-05T19:35:58.659Z,4.60
2019-03-05T19:42:04.075Z,4.60
2019-03-05T19:48:09.059Z,4.50
2019-03-05T19:54:13.594Z,4.40
2019-03-05T20:00:31.157Z,4.40
2019-03-05T20:06:35.999Z,4.30
2019-03-05T20:12:40.815Z,4.20
2019-03-05T20:18:45.642Z,4.20
2019-03-05T20:24:50.327Z,4.20
2019-03-05T20:30:54.889Z,4.20
2019-03-05T20:36:59.756Z,4.30
2019-03-05T20:43:05.609Z,4.20
2019-03-05T20:49:10.233Z,4.20
2019-03-05T20:55:23.472Z,4.10
2019-03-05T21:01:28.171Z,4.10
2019-03-05T21:07:32.788Z,4.10
2019-03-05T21:13:37.478Z,4.10
2019-03-05T21:19:42.119Z,4.10
2019-03-05T21:25:47.901Z,4.00
2019-03-05T21:31:52.545Z,3.90
2019-03-05T21:37:57.823Z,4.00
2019-03-05T21:44:02.632Z,3.90
2019-03-05T21:50:11.944Z,3.90
2019-03-05T21:56:17.084Z,4.00
2019-03-05T22:02:22.964Z,4.10
2019-03-05T22:08:27.657Z,4.20
2019-03-05T22:14:32.347Z,4.20
2019-03-05T22:20:37.143Z,4.30
2019-03-05T22:26:41.687Z,4.40
2019-03-05T22:32:47.647Z,4.40
2019-03-05T22:38:52.195Z,4.30
2019-03-05T22:44:56.895Z,4.30
2019-03-05T22:51:01.928Z,4.30
2019-03-05T22:57:06.620Z,4.10
2019-03-05T23:03:16.103Z,4.00
2019-03-05T23:09:22.498Z,3.90
2019-03-05T23:15:27.372Z,3.90
2019-03-05T23:21:32.179Z,3.90
2019-03-05T23:27:36.992Z,3.90
2019-03-05T23:33:41.792Z,3.80
2019-03-05T23:39:47.398Z,3.70
2019-03-05T23:45:52.073Z,3.70
2019-03-05T23:51:56.665Z,3.60
2019-03-05T23:58:01.632Z,3.60
